Terminal Aerodrome Forecast
Issued by NWS Missoula, MT

Home | Current Version | Previous Version | Text Only | Print | Product List | Glossary On
Versions: 1 2 3 4 5 6 7 8 9 10 11 12 13 14
000
FTUS45 KMSO 191140
TAFMSO
TAF
KMSO 191140Z 1912/2012 00000KT P6SM VCSH OVC070
     FM192000 VRB04KT 4SM -SN BR OVC030
     FM200100 VRB03KT 6SM BR VCSH OVC050=

USA.gov is the U.S. government's official web portal to all federal, state and local government web resources and services.